sensor_id;sensor_type;location;lat;lon;timestamp;P1;durP1;ratioP1;P2;durP2;ratioP2
31728;SDS011;18309;43.658;1.312;2023-07-31T00:02:14;11.57;;;3.78;;
31728;SDS011;18309;43.658;1.312;2023-07-31T00:04:40;13.65;;;4.00;;
31728;SDS011;18309;43.658;1.312;2023-07-31T00:07:05;10.45;;;4.13;;
31728;SDS011;18309;43.658;1.312;2023-07-31T00:09:32;10.43;;;3.80;;
31728;SDS011;18309;43.658;1.312;2023-07-31T00:11:58;14.27;;;4.15;;
31728;SDS011;18309;43.658;1.312;2023-07-31T00:14:24;8.88;;;3.60;;
31728;SDS011;18309;43.658;1.312;2023-07-31T00:16:50;13.02;;;4.43;;
31728;SDS011;18309;43.658;1.312;2023-07-31T00:19:15;17.02;;;4.13;;
31728;SDS011;18309;43.658;1.312;2023-07-31T00:21:41;18.38;;;4.00;;
31728;SDS011;18309;43.658;1.312;2023-07-31T00:24:06;11.55;;;4.15;;
31728;SDS011;18309;43.658;1.312;2023-07-31T00:26:32;9.00;;;3.28;;
31728;SDS011;18309;43.658;1.312;2023-07-31T00:28:58;9.95;;;3.85;;
31728;SDS011;18309;43.658;1.312;2023-07-31T00:31:23;17.85;;;4.53;;
31728;SDS011;18309;43.658;1.312;2023-07-31T00:33:49;15.10;;;3.95;;
31728;SDS011;18309;43.658;1.312;2023-07-31T00:36:15;15.60;;;4.55;;
31728;SDS011;18309;43.658;1.312;2023-07-31T00:38:40;13.40;;;3.28;;
31728;SDS011;18309;43.658;1.312;2023-07-31T00:41:07;9.63;;;3.63;;
31728;SDS011;18309;43.658;1.312;2023-07-31T00:43:33;11.77;;;3.80;;
31728;SDS011;18309;43.658;1.312;2023-07-31T00:45:59;12.43;;;3.83;;
31728;SDS011;18309;43.658;1.312;2023-07-31T00:48:24;11.25;;;3.80;;
31728;SDS011;18309;43.658;1.312;2023-07-31T00:50:51;10.60;;;3.72;;
31728;SDS011;18309;43.658;1.312;2023-07-31T00:53:17;10.10;;;3.47;;
31728;SDS011;18309;43.658;1.312;2023-07-31T00:55:44;16.10;;;4.00;;
31728;SDS011;18309;43.658;1.312;2023-07-31T00:58:10;13.77;;;4.30;;
31728;SDS011;18309;43.658;1.312;2023-07-31T01:00:36;12.93;;;3.83;;
31728;SDS011;18309;43.658;1.312;2023-07-31T01:03:02;15.80;;;4.13;;
31728;SDS011;18309;43.658;1.312;2023-07-31T01:05:37;9.00;;;3.05;;
31728;SDS011;18309;43.658;1.312;2023-07-31T01:08:15;12.40;;;4.00;;
31728;SDS011;18309;43.658;1.312;2023-07-31T01:10:54;16.63;;;3.90;;
31728;SDS011;18309;43.658;1.312;2023-07-31T01:13:24;16.98;;;4.97;;
31728;SDS011;18309;43.658;1.312;2023-07-31T01:15:50;12.65;;;3.83;;
31728;SDS011;18309;43.658;1.312;2023-07-31T01:18:15;11.35;;;4.38;;
31728;SDS011;18309;43.658;1.312;2023-07-31T01:20:41;14.52;;;5.40;;
31728;SDS011;18309;43.658;1.312;2023-07-31T01:26:19;11.02;;;3.88;;
31728;SDS011;18309;43.658;1.312;2023-07-31T01:31:35;15.35;;;5.07;;
31728;SDS011;18309;43.658;1.312;2023-07-31T01:34:03;19.27;;;5.35;;
31728;SDS011;18309;43.658;1.312;2023-07-31T01:36:30;14.05;;;4.82;;
31728;SDS011;18309;43.658;1.312;2023-07-31T01:39:00;11.18;;;4.30;;
31728;SDS011;18309;43.658;1.312;2023-07-31T01:43:53;11.43;;;4.00;;
31728;SDS011;18309;43.658;1.312;2023-07-31T01:46:18;13.15;;;4.75;;
31728;SDS011;18309;43.658;1.312;2023-07-31T01:48:44;12.75;;;4.20;;
31728;SDS011;18309;43.658;1.312;2023-07-31T01:51:09;14.55;;;4.22;;
31728;SDS011;18309;43.658;1.312;2023-07-31T01:53:35;12.02;;;4.45;;
31728;SDS011;18309;43.658;1.312;2023-07-31T01:56:01;17.17;;;4.45;;
31728;SDS011;18309;43.658;1.312;2023-07-31T01:58:26;13.63;;;3.85;;
31728;SDS011;18309;43.658;1.312;2023-07-31T02:00:52;13.45;;;4.57;;
31728;SDS011;18309;43.658;1.312;2023-07-31T02:03:18;9.23;;;4.07;;
31728;SDS011;18309;43.658;1.312;2023-07-31T02:05:47;9.10;;;4.15;;
31728;SDS011;18309;43.658;1.312;2023-07-31T02:08:13;15.77;;;4.70;;
31728;SDS011;18309;43.658;1.312;2023-07-31T02:10:39;13.63;;;3.97;;
31728;SDS011;18309;43.658;1.312;2023-07-31T02:13:06;17.55;;;5.38;;
31728;SDS011;18309;43.658;1.312;2023-07-31T02:15:32;8.95;;;4.22;;
31728;SDS011;18309;43.658;1.312;2023-07-31T02:17:58;19.58;;;5.15;;
31728;SDS011;18309;43.658;1.312;2023-07-31T02:20:24;13.48;;;4.30;;
31728;SDS011;18309;43.658;1.312;2023-07-31T02:22:50;12.50;;;4.03;;
31728;SDS011;18309;43.658;1.312;2023-07-31T02:25:17;14.77;;;4.93;;
31728;SDS011;18309;43.658;1.312;2023-07-31T02:27:42;15.30;;;4.97;;
31728;SDS011;18309;43.658;1.312;2023-07-31T02:30:08;13.57;;;4.93;;
31728;SDS011;18309;43.658;1.312;2023-07-31T02:32:34;14.23;;;4.55;;
31728;SDS011;18309;43.658;1.312;2023-07-31T02:35:00;10.10;;;4.00;;
31728;SDS011;18309;43.658;1.312;2023-07-31T02:37:26;10.85;;;4.15;;
31728;SDS011;18309;43.658;1.312;2023-07-31T02:39:53;13.25;;;4.57;;
31728;SDS011;18309;43.658;1.312;2023-07-31T02:42:19;15.30;;;5.10;;
31728;SDS011;18309;43.658;1.312;2023-07-31T02:44:45;15.15;;;4.63;;
31728;SDS011;18309;43.658;1.312;2023-07-31T02:47:12;13.57;;;4.35;;
31728;SDS011;18309;43.658;1.312;2023-07-31T02:49:37;10.60;;;4.03;;
31728;SDS011;18309;43.658;1.312;2023-07-31T02:52:03;9.85;;;4.45;;
31728;SDS011;18309;43.658;1.312;2023-07-31T02:54:29;15.15;;;4.63;;
31728;SDS011;18309;43.658;1.312;2023-07-31T02:56:55;11.40;;;4.05;;
31728;SDS011;18309;43.658;1.312;2023-07-31T02:59:20;12.38;;;4.80;;
31728;SDS011;18309;43.658;1.312;2023-07-31T03:01:46;14.05;;;4.60;;
31728;SDS011;18309;43.658;1.312;2023-07-31T03:04:12;14.70;;;4.80;;
31728;SDS011;18309;43.658;1.312;2023-07-31T03:06:37;12.55;;;4.55;;
31728;SDS011;18309;43.658;1.312;2023-07-31T03:09:03;9.65;;;4.95;;
31728;SDS011;18309;43.658;1.312;2023-07-31T03:11:29;15.98;;;5.00;;
31728;SDS011;18309;43.658;1.312;2023-07-31T03:13:54;13.85;;;4.85;;
31728;SDS011;18309;43.658;1.312;2023-07-31T03:16:20;12.52;;;4.47;;
31728;SDS011;18309;43.658;1.312;2023-07-31T03:18:46;14.82;;;5.10;;
31728;SDS011;18309;43.658;1.312;2023-07-31T03:21:12;12.55;;;4.78;;
31728;SDS011;18309;43.658;1.312;2023-07-31T03:23:38;9.45;;;3.92;;
31728;SDS011;18309;43.658;1.312;2023-07-31T03:26:05;15.35;;;4.40;;
31728;SDS011;18309;43.658;1.312;2023-07-31T03:28:32;15.48;;;4.88;;
31728;SDS011;18309;43.658;1.312;2023-07-31T03:30:57;9.38;;;4.50;;
31728;SDS011;18309;43.658;1.312;2023-07-31T03:33:24;12.40;;;4.38;;
31728;SDS011;18309;43.658;1.312;2023-07-31T03:35:50;12.20;;;5.05;;
31728;SDS011;18309;43.658;1.312;2023-07-31T03:38:15;12.48;;;4.82;;
31728;SDS011;18309;43.658;1.312;2023-07-31T03:40:41;13.70;;;4.20;;
31728;SDS011;18309;43.658;1.312;2023-07-31T03:43:07;11.27;;;4.35;;
31728;SDS011;18309;43.658;1.312;2023-07-31T03:45:33;12.57;;;4.00;;
31728;SDS011;18309;43.658;1.312;2023-07-31T03:47:58;11.30;;;4.15;;
31728;SDS011;18309;43.658;1.312;2023-07-31T03:50:24;16.02;;;4.38;;
31728;SDS011;18309;43.658;1.312;2023-07-31T03:52:50;15.90;;;4.97;;
31728;SDS011;18309;43.658;1.312;2023-07-31T03:55:16;17.92;;;5.10;;
31728;SDS011;18309;43.658;1.312;2023-07-31T03:57:44;15.32;;;5.28;;
31728;SDS011;18309;43.658;1.312;2023-07-31T04:00:09;12.77;;;4.75;;
31728;SDS011;18309;43.658;1.312;2023-07-31T04:02:36;14.13;;;4.32;;
31728;SDS011;18309;43.658;1.312;2023-07-31T04:05:02;12.73;;;4.53;;
31728;SDS011;18309;43.658;1.312;2023-07-31T04:07:27;13.15;;;4.95;;
31728;SDS011;18309;43.658;1.312;2023-07-31T04:09:53;21.50;;;5.53;;
31728;SDS011;18309;43.658;1.312;2023-07-31T04:12:19;15.27;;;5.18;;
31728;SDS011;18309;43.658;1.312;2023-07-31T04:14:44;11.50;;;4.72;;
31728;SDS011;18309;43.658;1.312;2023-07-31T04:17:10;17.13;;;4.55;;
31728;SDS011;18309;43.658;1.312;2023-07-31T04:19:36;11.43;;;4.63;;
31728;SDS011;18309;43.658;1.312;2023-07-31T04:22:01;10.75;;;4.38;;
31728;SDS011;18309;43.658;1.312;2023-07-31T04:24:27;14.88;;;4.95;;
31728;SDS011;18309;43.658;1.312;2023-07-31T04:26:53;14.23;;;4.47;;
31728;SDS011;18309;43.658;1.312;2023-07-31T04:29:19;10.15;;;4.82;;
31728;SDS011;18309;43.658;1.312;2023-07-31T04:31:45;11.80;;;4.15;;
31728;SDS011;18309;43.658;1.312;2023-07-31T04:34:12;14.90;;;4.60;;
31728;SDS011;18309;43.658;1.312;2023-07-31T04:36:38;14.95;;;5.03;;
31728;SDS011;18309;43.658;1.312;2023-07-31T04:39:04;15.65;;;5.00;;
31728;SDS011;18309;43.658;1.312;2023-07-31T04:41:29;15.93;;;4.75;;
31728;SDS011;18309;43.658;1.312;2023-07-31T04:43:55;21.05;;;5.20;;
31728;SDS011;18309;43.658;1.312;2023-07-31T04:46:20;10.10;;;3.80;;
31728;SDS011;18309;43.658;1.312;2023-07-31T04:48:46;12.57;;;4.82;;
31728;SDS011;18309;43.658;1.312;2023-07-31T04:51:12;14.07;;;5.07;;
31728;SDS011;18309;43.658;1.312;2023-07-31T04:53:38;17.67;;;6.38;;
31728;SDS011;18309;43.658;1.312;2023-07-31T04:56:03;16.67;;;4.60;;
31728;SDS011;18309;43.658;1.312;2023-07-31T04:58:29;14.23;;;4.25;;
31728;SDS011;18309;43.658;1.312;2023-07-31T05:00:55;12.85;;;4.45;;
31728;SDS011;18309;43.658;1.312;2023-07-31T05:03:21;11.85;;;4.60;;
31728;SDS011;18309;43.658;1.312;2023-07-31T05:05:47;17.55;;;4.68;;
31728;SDS011;18309;43.658;1.312;2023-07-31T05:08:12;23.40;;;5.15;;
31728;SDS011;18309;43.658;1.312;2023-07-31T05:10:38;15.13;;;4.85;;
31728;SDS011;18309;43.658;1.312;2023-07-31T05:13:05;11.55;;;4.22;;
31728;SDS011;18309;43.658;1.312;2023-07-31T05:15:30;21.55;;;4.47;;
31728;SDS011;18309;43.658;1.312;2023-07-31T05:17:56;11.52;;;4.30;;
31728;SDS011;18309;43.658;1.312;2023-07-31T05:20:22;17.02;;;4.45;;
31728;SDS011;18309;43.658;1.312;2023-07-31T05:22:47;18.25;;;4.28;;
31728;SDS011;18309;43.658;1.312;2023-07-31T05:25:13;11.85;;;4.32;;
31728;SDS011;18309;43.658;1.312;2023-07-31T05:27:39;22.73;;;5.55;;
31728;SDS011;18309;43.658;1.312;2023-07-31T05:30:05;13.45;;;4.80;;
31728;SDS011;18309;43.658;1.312;2023-07-31T05:32:31;16.00;;;5.18;;
31728;SDS011;18309;43.658;1.312;2023-07-31T05:34:57;18.42;;;4.70;;
31728;SDS011;18309;43.658;1.312;2023-07-31T05:37:23;16.92;;;5.03;;
31728;SDS011;18309;43.658;1.312;2023-07-31T05:39:49;17.98;;;4.95;;
31728;SDS011;18309;43.658;1.312;2023-07-31T05:42:14;27.10;;;4.35;;
31728;SDS011;18309;43.658;1.312;2023-07-31T05:44:40;20.63;;;5.53;;
31728;SDS011;18309;43.658;1.312;2023-07-31T05:47:06;16.35;;;4.57;;
31728;SDS011;18309;43.658;1.312;2023-07-31T05:49:31;18.98;;;4.55;;
31728;SDS011;18309;43.658;1.312;2023-07-31T05:51:57;17.15;;;4.75;;
31728;SDS011;18309;43.658;1.312;2023-07-31T05:54:23;18.38;;;5.32;;
31728;SDS011;18309;43.658;1.312;2023-07-31T05:56:48;17.63;;;4.95;;
31728;SDS011;18309;43.658;1.312;2023-07-31T05:59:15;15.40;;;4.53;;
31728;SDS011;18309;43.658;1.312;2023-07-31T06:01:41;15.40;;;4.85;;
31728;SDS011;18309;43.658;1.312;2023-07-31T06:04:07;17.15;;;4.85;;
31728;SDS011;18309;43.658;1.312;2023-07-31T06:06:33;13.75;;;3.85;;
31728;SDS011;18309;43.658;1.312;2023-07-31T06:08:59;13.55;;;3.60;;
31728;SDS011;18309;43.658;1.312;2023-07-31T06:11:26;14.15;;;4.03;;
31728;SDS011;18309;43.658;1.312;2023-07-31T06:13:52;17.00;;;4.15;;
31728;SDS011;18309;43.658;1.312;2023-07-31T06:16:17;15.38;;;4.32;;
31728;SDS011;18309;43.658;1.312;2023-07-31T06:18:43;12.38;;;4.45;;
31728;SDS011;18309;43.658;1.312;2023-07-31T06:21:09;20.05;;;3.83;;
31728;SDS011;18309;43.658;1.312;2023-07-31T06:23:35;18.85;;;4.93;;
31728;SDS011;18309;43.658;1.312;2023-07-31T06:26:01;14.18;;;4.82;;
31728;SDS011;18309;43.658;1.312;2023-07-31T06:28:30;15.73;;;4.30;;
31728;SDS011;18309;43.658;1.312;2023-07-31T06:30:57;18.00;;;4.03;;
31728;SDS011;18309;43.658;1.312;2023-07-31T06:33:23;13.15;;;4.38;;
31728;SDS011;18309;43.658;1.312;2023-07-31T06:35:50;21.05;;;4.22;;
31728;SDS011;18309;43.658;1.312;2023-07-31T06:38:16;17.00;;;4.60;;
31728;SDS011;18309;43.658;1.312;2023-07-31T06:40:44;16.60;;;3.92;;
31728;SDS011;18309;43.658;1.312;2023-07-31T06:43:09;14.77;;;4.35;;
31728;SDS011;18309;43.658;1.312;2023-07-31T06:45:36;18.08;;;4.63;;
31728;SDS011;18309;43.658;1.312;2023-07-31T06:48:03;13.57;;;4.20;;
31728;SDS011;18309;43.658;1.312;2023-07-31T06:50:32;18.00;;;4.68;;
31728;SDS011;18309;43.658;1.312;2023-07-31T06:52:58;13.63;;;4.13;;
31728;SDS011;18309;43.658;1.312;2023-07-31T06:55:24;17.27;;;3.88;;
31728;SDS011;18309;43.658;1.312;2023-07-31T06:57:52;15.75;;;4.03;;
31728;SDS011;18309;43.658;1.312;2023-07-31T07:00:19;16.85;;;4.00;;
31728;SDS011;18309;43.658;1.312;2023-07-31T07:02:45;16.33;;;4.35;;
31728;SDS011;18309;43.658;1.312;2023-07-31T07:05:14;22.55;;;4.75;;
31728;SDS011;18309;43.658;1.312;2023-07-31T07:07:42;15.63;;;5.22;;
31728;SDS011;18309;43.658;1.312;2023-07-31T07:10:08;34.60;;;5.20;;
31728;SDS011;18309;43.658;1.312;2023-07-31T07:12:34;19.52;;;4.28;;
31728;SDS011;18309;43.658;1.312;2023-07-31T07:15:00;20.10;;;4.53;;
31728;SDS011;18309;43.658;1.312;2023-07-31T07:17:27;31.45;;;4.95;;
31728;SDS011;18309;43.658;1.312;2023-07-31T07:19:56;15.95;;;3.67;;
31728;SDS011;18309;43.658;1.312;2023-07-31T07:22:22;16.40;;;4.47;;
31728;SDS011;18309;43.658;1.312;2023-07-31T07:24:49;24.92;;;4.32;;
31728;SDS011;18309;43.658;1.312;2023-07-31T07:27:14;21.55;;;5.30;;
31728;SDS011;18309;43.658;1.312;2023-07-31T07:29:40;17.55;;;4.32;;
31728;SDS011;18309;43.658;1.312;2023-07-31T07:32:06;23.38;;;4.97;;
31728;SDS011;18309;43.658;1.312;2023-07-31T07:34:32;17.58;;;4.30;;
31728;SDS011;18309;43.658;1.312;2023-07-31T07:36:58;16.40;;;3.45;;
31728;SDS011;18309;43.658;1.312;2023-07-31T07:39:23;19.13;;;4.65;;
31728;SDS011;18309;43.658;1.312;2023-07-31T07:41:50;11.13;;;3.38;;
31728;SDS011;18309;43.658;1.312;2023-07-31T07:44:15;22.38;;;4.53;;
31728;SDS011;18309;43.658;1.312;2023-07-31T07:46:41;15.10;;;3.85;;
31728;SDS011;18309;43.658;1.312;2023-07-31T07:49:07;13.50;;;4.07;;
31728;SDS011;18309;43.658;1.312;2023-07-31T07:51:34;17.45;;;5.03;;
31728;SDS011;18309;43.658;1.312;2023-07-31T07:54:00;12.18;;;3.10;;
31728;SDS011;18309;43.658;1.312;2023-07-31T07:56:26;13.48;;;3.83;;
31728;SDS011;18309;43.658;1.312;2023-07-31T07:58:52;23.30;;;5.47;;
31728;SDS011;18309;43.658;1.312;2023-07-31T08:01:19;21.05;;;4.60;;
31728;SDS011;18309;43.658;1.312;2023-07-31T08:03:45;21.60;;;5.22;;
31728;SDS011;18309;43.658;1.312;2023-07-31T08:06:11;11.98;;;3.92;;
31728;SDS011;18309;43.658;1.312;2023-07-31T08:08:37;16.20;;;4.47;;
31728;SDS011;18309;43.658;1.312;2023-07-31T08:11:02;20.77;;;4.40;;
31728;SDS011;18309;43.658;1.312;2023-07-31T08:13:28;15.55;;;4.70;;
31728;SDS011;18309;43.658;1.312;2023-07-31T08:15:54;18.75;;;4.95;;
31728;SDS011;18309;43.658;1.312;2023-07-31T08:18:20;18.75;;;4.47;;
31728;SDS011;18309;43.658;1.312;2023-07-31T08:20:46;10.85;;;4.18;;
31728;SDS011;18309;43.658;1.312;2023-07-31T08:23:12;12.63;;;4.03;;
31728;SDS011;18309;43.658;1.312;2023-07-31T08:25:38;14.02;;;3.90;;
31728;SDS011;18309;43.658;1.312;2023-07-31T08:28:06;17.58;;;3.60;;
31728;SDS011;18309;43.658;1.312;2023-07-31T08:30:32;14.48;;;3.90;;
31728;SDS011;18309;43.658;1.312;2023-07-31T08:32:58;12.50;;;3.60;;
31728;SDS011;18309;43.658;1.312;2023-07-31T08:35:24;10.23;;;3.08;;
31728;SDS011;18309;43.658;1.312;2023-07-31T08:37:53;12.57;;;3.85;;
31728;SDS011;18309;43.658;1.312;2023-07-31T08:40:18;11.40;;;3.38;;
31728;SDS011;18309;43.658;1.312;2023-07-31T08:42:45;12.90;;;3.88;;
31728;SDS011;18309;43.658;1.312;2023-07-31T08:45:15;9.57;;;3.80;;
31728;SDS011;18309;43.658;1.312;2023-07-31T08:47:44;10.40;;;3.50;;
31728;SDS011;18309;43.658;1.312;2023-07-31T08:50:16;12.35;;;4.15;;
31728;SDS011;18309;43.658;1.312;2023-07-31T08:52:43;27.70;;;4.03;;
31728;SDS011;18309;43.658;1.312;2023-07-31T08:55:09;12.38;;;3.17;;
31728;SDS011;18309;43.658;1.312;2023-07-31T08:57:37;11.50;;;3.55;;
31728;SDS011;18309;43.658;1.312;2023-07-31T09:00:07;11.10;;;3.25;;
31728;SDS011;18309;43.658;1.312;2023-07-31T09:05:11;11.20;;;3.58;;
31728;SDS011;18309;43.658;1.312;2023-07-31T09:07:37;12.68;;;3.67;;
31728;SDS011;18309;43.658;1.312;2023-07-31T09:10:04;8.40;;;2.97;;
31728;SDS011;18309;43.658;1.312;2023-07-31T09:12:30;10.77;;;3.00;;
31728;SDS011;18309;43.658;1.312;2023-07-31T09:14:59;10.88;;;2.80;;
31728;SDS011;18309;43.658;1.312;2023-07-31T09:17:32;9.70;;;3.13;;
31728;SDS011;18309;43.658;1.312;2023-07-31T09:20:21;10.93;;;2.95;;
31728;SDS011;18309;43.658;1.312;2023-07-31T09:22:46;5.43;;;2.45;;
31728;SDS011;18309;43.658;1.312;2023-07-31T09:25:23;6.03;;;2.60;;
31728;SDS011;18309;43.658;1.312;2023-07-31T09:27:52;11.90;;;2.55;;
31728;SDS011;18309;43.658;1.312;2023-07-31T09:30:21;9.38;;;1.83;;
31728;SDS011;18309;43.658;1.312;2023-07-31T09:32:47;11.50;;;2.67;;
31728;SDS011;18309;43.658;1.312;2023-07-31T09:37:51;7.90;;;2.10;;
31728;SDS011;18309;43.658;1.312;2023-07-31T09:40:27;11.75;;;1.98;;
31728;SDS011;18309;43.658;1.312;2023-07-31T09:42:58;5.88;;;2.13;;
31728;SDS011;18309;43.658;1.312;2023-07-31T09:45:25;6.68;;;2.42;;
31728;SDS011;18309;43.658;1.312;2023-07-31T09:47:52;9.10;;;2.72;;
31728;SDS011;18309;43.658;1.312;2023-07-31T09:50:19;12.07;;;3.17;;
31728;SDS011;18309;43.658;1.312;2023-07-31T09:52:46;5.43;;;1.77;;
31728;SDS011;18309;43.658;1.312;2023-07-31T09:55:11;6.18;;;2.47;;
31728;SDS011;18309;43.658;1.312;2023-07-31T09:57:41;3.90;;;1.95;;
31728;SDS011;18309;43.658;1.312;2023-07-31T10:00:09;3.92;;;1.58;;
31728;SDS011;18309;43.658;1.312;2023-07-31T10:02:36;7.00;;;2.15;;
31728;SDS011;18309;43.658;1.312;2023-07-31T10:05:03;8.57;;;2.72;;
31728;SDS011;18309;43.658;1.312;2023-07-31T10:07:30;8.40;;;1.98;;
31728;SDS011;18309;43.658;1.312;2023-07-31T10:09:59;4.40;;;1.85;;
31728;SDS011;18309;43.658;1.312;2023-07-31T10:12:26;12.15;;;2.22;;
31728;SDS011;18309;43.658;1.312;2023-07-31T10:14:55;6.03;;;2.33;;
31728;SDS011;18309;43.658;1.312;2023-07-31T10:17:23;7.93;;;2.45;;
31728;SDS011;18309;43.658;1.312;2023-07-31T10:19:49;8.43;;;2.50;;
31728;SDS011;18309;43.658;1.312;2023-07-31T10:22:16;9.40;;;1.88;;
31728;SDS011;18309;43.658;1.312;2023-07-31T10:24:43;8.02;;;2.20;;
31728;SDS011;18309;43.658;1.312;2023-07-31T10:27:10;9.85;;;3.00;;
31728;SDS011;18309;43.658;1.312;2023-07-31T10:29:40;8.45;;;2.33;;
31728;SDS011;18309;43.658;1.312;2023-07-31T10:32:08;7.63;;;2.60;;
31728;SDS011;18309;43.658;1.312;2023-07-31T10:34:36;9.38;;;2.55;;
31728;SDS011;18309;43.658;1.312;2023-07-31T10:39:58;8.10;;;2.70;;
31728;SDS011;18309;43.658;1.312;2023-07-31T10:42:55;10.02;;;3.00;;
31728;SDS011;18309;43.658;1.312;2023-07-31T10:45:34;8.63;;;2.58;;
31728;SDS011;18309;43.658;1.312;2023-07-31T10:48:05;9.15;;;3.08;;
31728;SDS011;18309;43.658;1.312;2023-07-31T10:50:32;10.75;;;3.17;;
31728;SDS011;18309;43.658;1.312;2023-07-31T10:53:02;11.35;;;3.00;;
31728;SDS011;18309;43.658;1.312;2023-07-31T10:55:40;9.77;;;2.80;;
31728;SDS011;18309;43.658;1.312;2023-07-31T10:58:08;20.45;;;2.67;;
31728;SDS011;18309;43.658;1.312;2023-07-31T11:00:38;7.70;;;2.63;;
31728;SDS011;18309;43.658;1.312;2023-07-31T11:03:06;10.57;;;3.00;;
31728;SDS011;18309;43.658;1.312;2023-07-31T11:08:16;8.73;;;2.95;;
31728;SDS011;18309;43.658;1.312;2023-07-31T11:10:47;11.00;;;3.28;;
31728;SDS011;18309;43.658;1.312;2023-07-31T11:13:33;15.80;;;2.92;;
31728;SDS011;18309;43.658;1.312;2023-07-31T11:16:06;8.80;;;2.67;;
31728;SDS011;18309;43.658;1.312;2023-07-31T11:18:37;14.10;;;2.80;;
31728;SDS011;18309;43.658;1.312;2023-07-31T11:21:04;10.95;;;3.08;;
31728;SDS011;18309;43.658;1.312;2023-07-31T11:23:30;7.20;;;2.20;;
31728;SDS011;18309;43.658;1.312;2023-07-31T11:25:58;9.80;;;2.80;;
31728;SDS011;18309;43.658;1.312;2023-07-31T11:28:25;14.35;;;3.33;;
31728;SDS011;18309;43.658;1.312;2023-07-31T11:30:50;5.18;;;2.58;;
31728;SDS011;18309;43.658;1.312;2023-07-31T11:33:16;11.48;;;2.47;;
31728;SDS011;18309;43.658;1.312;2023-07-31T11:35:46;9.50;;;2.58;;
31728;SDS011;18309;43.658;1.312;2023-07-31T11:38:24;9.27;;;3.13;;
31728;SDS011;18309;43.658;1.312;2023-07-31T11:41:02;8.23;;;2.78;;
31728;SDS011;18309;43.658;1.312;2023-07-31T11:43:29;6.95;;;2.10;;
31728;SDS011;18309;43.658;1.312;2023-07-31T11:45:56;8.15;;;2.92;;
31728;SDS011;18309;43.658;1.312;2023-07-31T11:48:30;9.90;;;3.00;;
31728;SDS011;18309;43.658;1.312;2023-07-31T11:50:59;9.52;;;2.17;;
31728;SDS011;18309;43.658;1.312;2023-07-31T11:53:36;10.93;;;3.00;;
31728;SDS011;18309;43.658;1.312;2023-07-31T11:56:06;8.93;;;2.70;;
31728;SDS011;18309;43.658;1.312;2023-07-31T11:58:34;6.47;;;2.70;;
31728;SDS011;18309;43.658;1.312;2023-07-31T12:01:01;6.38;;;2.33;;
31728;SDS011;18309;43.658;1.312;2023-07-31T12:03:27;9.35;;;2.60;;
31728;SDS011;18309;43.658;1.312;2023-07-31T12:05:53;10.40;;;2.72;;
31728;SDS011;18309;43.658;1.312;2023-07-31T12:08:23;5.35;;;2.33;;
31728;SDS011;18309;43.658;1.312;2023-07-31T12:13:24;10.57;;;3.13;;
31728;SDS011;18309;43.658;1.312;2023-07-31T12:15:54;8.25;;;2.80;;
31728;SDS011;18309;43.658;1.312;2023-07-31T12:18:24;9.07;;;2.22;;
31728;SDS011;18309;43.658;1.312;2023-07-31T12:20:59;8.30;;;2.90;;
31728;SDS011;18309;43.658;1.312;2023-07-31T12:23:26;9.70;;;2.53;;
31728;SDS011;18309;43.658;1.312;2023-07-31T12:28:38;7.80;;;2.47;;
31728;SDS011;18309;43.658;1.312;2023-07-31T12:31:08;4.72;;;1.90;;
31728;SDS011;18309;43.658;1.312;2023-07-31T12:33:54;8.65;;;3.35;;
31728;SDS011;18309;43.658;1.312;2023-07-31T12:36:23;8.18;;;2.83;;
31728;SDS011;18309;43.658;1.312;2023-07-31T12:38:50;10.38;;;2.75;;
31728;SDS011;18309;43.658;1.312;2023-07-31T12:41:16;6.95;;;2.58;;
31728;SDS011;18309;43.658;1.312;2023-07-31T12:43:44;7.28;;;2.40;;
31728;SDS011;18309;43.658;1.312;2023-07-31T12:46:10;12.95;;;2.75;;
31728;SDS011;18309;43.658;1.312;2023-07-31T12:48:37;16.08;;;2.92;;
31728;SDS011;18309;43.658;1.312;2023-07-31T12:51:03;11.57;;;2.63;;
31728;SDS011;18309;43.658;1.312;2023-07-31T12:53:29;8.10;;;2.80;;
31728;SDS011;18309;43.658;1.312;2023-07-31T12:55:56;19.23;;;2.97;;
31728;SDS011;18309;43.658;1.312;2023-07-31T12:58:21;5.88;;;2.78;;
31728;SDS011;18309;43.658;1.312;2023-07-31T13:00:47;5.78;;;2.15;;
31728;SDS011;18309;43.658;1.312;2023-07-31T13:03:13;6.20;;;2.55;;
31728;SDS011;18309;43.658;1.312;2023-07-31T13:05:39;9.35;;;3.17;;
31728;SDS011;18309;43.658;1.312;2023-07-31T13:08:04;8.35;;;2.72;;
31728;SDS011;18309;43.658;1.312;2023-07-31T13:10:31;8.10;;;2.78;;
31728;SDS011;18309;43.658;1.312;2023-07-31T13:12:56;12.65;;;3.35;;
31728;SDS011;18309;43.658;1.312;2023-07-31T13:15:25;10.60;;;3.45;;
31728;SDS011;18309;43.658;1.312;2023-07-31T13:17:51;13.85;;;2.78;;
31728;SDS011;18309;43.658;1.312;2023-07-31T13:20:16;11.27;;;2.70;;
31728;SDS011;18309;43.658;1.312;2023-07-31T13:22:42;6.57;;;2.78;;
31728;SDS011;18309;43.658;1.312;2023-07-31T13:25:08;12.27;;;2.65;;
31728;SDS011;18309;43.658;1.312;2023-07-31T13:27:34;6.90;;;2.88;;
31728;SDS011;18309;43.658;1.312;2023-07-31T13:30:00;6.82;;;3.17;;
31728;SDS011;18309;43.658;1.312;2023-07-31T13:32:26;6.80;;;2.75;;
31728;SDS011;18309;43.658;1.312;2023-07-31T13:34:52;9.63;;;3.22;;
31728;SDS011;18309;43.658;1.312;2023-07-31T13:37:17;6.55;;;2.90;;
31728;SDS011;18309;43.658;1.312;2023-07-31T13:39:43;5.30;;;3.00;;
31728;SDS011;18309;43.658;1.312;2023-07-31T13:42:09;7.15;;;3.63;;
31728;SDS011;18309;43.658;1.312;2023-07-31T13:44:40;9.35;;;2.80;;
31728;SDS011;18309;43.658;1.312;2023-07-31T13:47:23;12.65;;;2.97;;
31728;SDS011;18309;43.658;1.312;2023-07-31T13:49:49;8.00;;;2.70;;
31728;SDS011;18309;43.658;1.312;2023-07-31T13:52:14;7.38;;;2.90;;
31728;SDS011;18309;43.658;1.312;2023-07-31T13:54:40;5.57;;;2.72;;
31728;SDS011;18309;43.658;1.312;2023-07-31T13:57:08;20.63;;;9.25;;
31728;SDS011;18309;43.658;1.312;2023-07-31T13:59:34;7.25;;;2.88;;
31728;SDS011;18309;43.658;1.312;2023-07-31T14:01:59;8.00;;;2.78;;
31728;SDS011;18309;43.658;1.312;2023-07-31T14:04:25;8.90;;;2.88;;
31728;SDS011;18309;43.658;1.312;2023-07-31T14:06:51;6.30;;;3.15;;
31728;SDS011;18309;43.658;1.312;2023-07-31T14:09:17;8.85;;;3.78;;
31728;SDS011;18309;43.658;1.312;2023-07-31T14:11:43;10.35;;;3.20;;
31728;SDS011;18309;43.658;1.312;2023-07-31T14:14:09;9.48;;;3.20;;
31728;SDS011;18309;43.658;1.312;2023-07-31T14:16:35;5.07;;;2.90;;
31728;SDS011;18309;43.658;1.312;2023-07-31T14:19:01;8.50;;;3.28;;
31728;SDS011;18309;43.658;1.312;2023-07-31T14:21:27;7.28;;;2.92;;
31728;SDS011;18309;43.658;1.312;2023-07-31T14:23:52;8.38;;;3.00;;
31728;SDS011;18309;43.658;1.312;2023-07-31T14:26:20;10.13;;;3.17;;
31728;SDS011;18309;43.658;1.312;2023-07-31T14:28:45;11.27;;;3.13;;
31728;SDS011;18309;43.658;1.312;2023-07-31T14:31:11;5.53;;;2.92;;
31728;SDS011;18309;43.658;1.312;2023-07-31T14:33:37;6.25;;;3.13;;
31728;SDS011;18309;43.658;1.312;2023-07-31T14:36:02;6.03;;;3.15;;
31728;SDS011;18309;43.658;1.312;2023-07-31T14:38:28;8.30;;;2.78;;
31728;SDS011;18309;43.658;1.312;2023-07-31T14:40:54;8.95;;;3.58;;
31728;SDS011;18309;43.658;1.312;2023-07-31T14:43:20;11.70;;;3.63;;
31728;SDS011;18309;43.658;1.312;2023-07-31T14:45:46;18.65;;;3.47;;
31728;SDS011;18309;43.658;1.312;2023-07-31T14:48:12;7.63;;;3.20;;
31728;SDS011;18309;43.658;1.312;2023-07-31T14:50:39;9.60;;;3.20;;
31728;SDS011;18309;43.658;1.312;2023-07-31T14:53:05;10.63;;;2.90;;
31728;SDS011;18309;43.658;1.312;2023-07-31T14:55:32;8.07;;;2.85;;
31728;SDS011;18309;43.658;1.312;2023-07-31T14:57:58;6.35;;;2.85;;
31728;SDS011;18309;43.658;1.312;2023-07-31T15:00:23;12.70;;;3.20;;
31728;SDS011;18309;43.658;1.312;2023-07-31T15:02:49;9.35;;;3.72;;